Airport View

Enter AWOS ICAO identifier for current METAR.

ex. KFNL

KC07 051315Z AUTO 00000KT 10SM CLR 11/05 A3051 RMK AO2

5 Aug 2020 13:34

Frequency: 127.125

Phone: 970-824-0261

TAF KEGE 051139Z 0512/0612 VRB04KT P6SM FEW120 FEW250 FM051900 24012G21KT P6SM FEW150 SCT200 FM060400 10007KT P6SM FEW120 SCT250